Time;durP1;ratioP1;P1;durP2;ratioP2;P2;SDS_P1;SDS_P2;PMS_P1;PMS_P2;Temp;Humidity;BMP_temperature;BMP_pressure;BME280_temperature;BME280_humidity;BME280_pressure;Samples;Min_cycle;Max_cycle;Signal;HPM_P1;HPM_P2
2022/09/02 00:00:43;;;;;;;0.70;0.70;;;;;;;15.33;78.66;95550.81;4373610;32;20260;-62
2022/09/02 00:03:09;;;;;;;0.80;0.80;;;;;;;15.17;79.19;95547.06;4360717;32;20201;-62
2022/09/02 00:05:35;;;;;;;0.50;0.50;;;;;;;14.97;80.15;95537.78;4347336;32;20247;-62
2022/09/02 00:08:00;;;;;;;0.67;0.67;;;;;;;14.99;80.13;95544.41;4374446;32;20188;-62
2022/09/02 00:10:26;;;;;;;0.97;0.97;;;;;;;15.09;79.78;95538.75;4359456;32;20201;-62
2022/09/02 00:12:52;;;;;;;0.80;0.80;;;;;;;15.11;79.86;95530.41;4361438;32;20247;-62
2022/09/02 00:15:17;;;;;;;0.83;0.80;;;;;;;15.10;79.85;95529.63;4358464;32;20212;-62
2022/09/02 00:17:42;;;;;;;0.73;0.73;;;;;;;15.10;79.71;95529.63;4357770;32;20200;-62
2022/09/02 00:20:08;;;;;;;1.23;1.13;;;;;;;14.92;80.37;95528.06;4357750;32;20240;-62
2022/09/02 00:22:34;;;;;;;1.77;1.13;;;;;;;15.00;80.16;95524.59;4358533;32;20188;-62
2022/09/02 00:24:59;;;;;;;1.53;1.43;;;;;;;15.19;79.59;95528.81;4349471;32;20189;-61
2022/09/02 00:27:25;;;;;;;0.50;0.50;;;;;;;15.23;79.06;95522.53;4350906;32;20314;-62
2022/09/02 00:29:52;;;;;;;0.77;0.77;;;;;;;15.28;79.13;95525.03;4385343;32;20189;-62
2022/09/02 00:32:18;;;;;;;0.93;0.93;;;;;;;15.23;79.20;95524.41;4347734;32;20252;-62
2022/09/02 00:34:43;;;;;;;2.53;1.23;;;;;;;15.15;79.64;95522.56;4347807;32;20184;-62
2022/09/02 00:37:09;;;;;;;0.40;0.40;;;;;;;15.16;79.52;95521.44;4361133;32;20211;-62
2022/09/02 00:39:34;;;;;;;1.13;0.67;;;;;;;15.20;79.46;95522.38;4361543;32;20189;-62
2022/09/02 00:42:00;;;;;;;1.80;1.30;;;;;;;15.19;79.33;95518.13;4371088;32;20219;-62
2022/09/02 00:44:26;;;;;;;1.60;0.60;;;;;;;15.24;79.18;95521.41;4347163;32;20362;-62
2022/09/02 00:46:51;;;;;;;1.00;1.00;;;;;;;15.07;79.81;95518.78;4358611;32;20195;-61
2022/09/02 00:49:27;;;;;;;0.80;0.80;;;;;;;15.10;79.88;95513.59;4358348;32;20219;-61
2022/09/02 00:52:11;;;;;;;1.70;1.00;;;;;;;15.19;79.39;95515.44;4353818;32;20251;-62
2022/09/02 00:54:42;;;;;;;0.43;0.43;;;;;;;15.33;78.83;95508.06;4363996;32;20193;-62
2022/09/02 00:57:11;;;;;;;0.77;0.77;;;;;;;15.22;79.08;95510.25;4371701;32;20276;-62
2022/09/02 00:59:48;;;;;;;0.50;0.50;;;;;;;15.07;79.83;95503.53;4369389;32;20201;-62
2022/09/02 01:02:14;;;;;;;0.57;0.57;;;;;;;15.04;79.76;95504.16;4346182;32;20208;-62
2022/09/02 01:04:42;;;;;;;0.50;0.50;;;;;;;15.02;80.07;95509.03;4364200;32;20205;-62
2022/09/02 01:07:08;;;;;;;1.27;0.83;;;;;;;14.99;80.45;95501.66;4359241;32;20189;-62
2022/09/02 01:09:35;;;;;;;0.77;0.77;;;;;;;14.89;80.71;95506.53;4370167;32;20193;-62
2022/09/02 01:12:02;;;;;;;0.77;0.77;;;;;;;14.83;80.87;95502.47;4363908;32;20211;-62
2022/09/02 01:14:28;;;;;;;0.80;0.80;;;;;;;14.68;81.42;95501.06;4351670;32;20196;-62
2022/09/02 01:16:58;;;;;;;0.70;0.70;;;;;;;14.78;81.24;95503.37;4351364;32;20184;-62
2022/09/02 01:19:33;;;;;;;0.57;0.57;;;;;;;14.94;80.38;95504.50;4372840;32;20236;-62
2022/09/02 01:21:59;;;;;;;0.57;0.57;;;;;;;14.92;80.69;95504.03;4368679;32;20230;-62
2022/09/02 01:24:30;;;;;;;0.50;0.50;;;;;;;14.90;80.53;95498.22;4362862;32;21665;-62
2022/09/02 01:26:57;;;;;;;0.63;0.63;;;;;;;15.02;80.31;95503.69;4356653;32;20197;-62
2022/09/02 01:29:26;;;;;;;0.83;0.83;;;;;;;14.87;80.82;95501.50;4368452;32;20220;-62
2022/09/02 01:31:51;;;;;;;0.87;0.87;;;;;;;14.76;81.42;95505.59;4356328;32;20227;-62
2022/09/02 01:34:17;;;;;;;2.40;1.00;;;;;;;14.77;81.24;95501.81;4367885;32;20208;-62
2022/09/02 01:36:43;;;;;;;0.60;0.60;;;;;;;14.59;82.13;95503.72;4360352;32;20238;-62
2022/09/02 01:39:10;;;;;;;1.07;0.83;;;;;;;14.60;82.10;95499.94;4370894;32;20201;-62
2022/09/02 01:41:35;;;;;;;1.47;0.90;;;;;;;14.77;81.60;95493.81;4373959;32;20185;-63
2022/09/02 01:44:01;;;;;;;7.03;1.47;;;;;;;14.56;82.38;95492.88;4369562;32;20209;-62
2022/09/02 01:46:26;;;;;;;0.80;0.80;;;;;;;14.60;82.39;95488.47;4355763;32;20196;-62
2022/09/02 01:48:52;;;;;;;1.00;1.00;;;;;;;14.74;81.72;95495.25;4354400;32;20240;-62
2022/09/02 01:51:19;;;;;;;0.87;0.87;;;;;;;14.46;82.80;95488.63;4359548;32;20196;-62
2022/09/02 01:53:46;;;;;;;1.10;1.00;;;;;;;14.40;83.16;95485.31;4362976;32;20211;-62
2022/09/02 01:56:12;;;;;;;0.60;0.60;;;;;;;14.56;82.68;95484.84;4361140;32;20204;-62
2022/09/02 01:58:38;;;;;;;0.90;0.90;;;;;;;14.47;83.23;95484.09;4361573;32;20219;-62
2022/09/02 02:01:07;;;;;;;0.90;0.90;;;;;;;14.38;83.43;95482.16;4374367;32;20205;-62
2022/09/02 02:03:34;;;;;;;1.60;0.80;;;;;;;14.58;82.57;95480.00;4350211;32;20223;-62
2022/09/02 02:06:00;;;;;;;0.50;0.50;;;;;;;14.51;82.74;95479.69;4360860;32;20203;-62
2022/09/02 02:08:26;;;;;;;0.90;0.90;;;;;;;14.64;82.38;95478.75;4360731;32;20248;-62
2022/09/02 02:10:51;;;;;;;0.87;0.87;;;;;;;14.46;82.93;95477.16;4353081;32;20213;-62
2022/09/02 02:13:16;;;;;;;0.73;0.73;;;;;;;14.51;82.77;95469.81;4357939;32;20193;-62
2022/09/02 02:15:43;;;;;;;1.37;1.30;;;;;;;14.60;82.57;95475.13;4358577;32;20224;-62
2022/09/02 02:18:09;;;;;;;0.77;0.77;;;;;;;14.55;82.38;95477.97;4345612;32;20252;-62
2022/09/02 02:20:36;;;;;;;0.60;0.60;;;;;;;14.60;82.39;95472.47;4349027;32;20253;-62
2022/09/02 02:23:04;;;;;;;0.73;0.73;;;;;;;14.53;82.58;95477.50;4368984;32;20211;-62
2022/09/02 02:25:30;;;;;;;0.90;0.90;;;;;;;14.48;82.99;95478.44;4370241;32;20188;-62
2022/09/02 02:27:55;;;;;;;1.03;1.03;;;;;;;14.30;83.46;95472.28;4358741;32;20277;-62
2022/09/02 02:30:21;;;;;;;0.57;0.57;;;;;;;14.36;83.67;95472.87;4372695;32;20181;-62
2022/09/02 02:32:46;;;;;;;0.93;0.93;;;;;;;14.47;83.18;95473.41;4349323;32;20200;-62
2022/09/02 02:35:14;;;;;;;1.07;1.07;;;;;;;14.48;83.15;95474.97;4363315;32;20212;-61
2022/09/02 02:37:40;;;;;;;0.63;0.63;;;;;;;14.28;83.69;95466.47;4345889;32;20263;-62
2022/09/02 02:40:06;;;;;;;1.03;1.03;;;;;;;14.39;83.62;95470.38;4356600;32;20201;-62
2022/09/02 02:42:32;;;;;;;1.27;1.20;;;;;;;14.44;83.58;95475.59;4347448;32;20230;-62
2022/09/02 02:44:58;;;;;;;0.83;0.83;;;;;;;14.53;83.07;95466.81;4355403;32;20203;-62
2022/09/02 02:47:23;;;;;;;0.60;0.60;;;;;;;14.43;83.35;95471.34;4351850;32;20193;-62
2022/09/02 02:49:49;;;;;;;1.17;1.03;;;;;;;14.40;83.46;95468.50;4360623;32;20207;-61
2022/09/02 02:52:14;;;;;;;0.53;0.53;;;;;;;14.55;82.95;95472.63;4350096;32;20184;-62
2022/09/02 02:54:40;;;;;;;0.37;0.37;;;;;;;14.49;83.42;95468.53;4365032;32;20246;-62
2022/09/02 02:57:07;;;;;;;1.60;0.93;;;;;;;14.61;82.82;95466.00;4355239;32;20200;-62
2022/09/02 02:59:33;;;;;;;1.23;1.20;;;;;;;14.63;82.63;95466.50;4366570;32;20192;-62
2022/09/02 03:01:59;;;;;;;1.13;1.13;;;;;;;14.49;83.26;95471.22;4359250;32;20260;-62
2022/09/02 03:04:24;;;;;;;0.77;0.77;;;;;;;14.28;83.93;95463.78;4365285;32;20226;-62
2022/09/02 03:06:50;;;;;;;0.63;0.63;;;;;;;14.37;83.96;95461.09;4367242;32;20207;-62
2022/09/02 03:09:15;;;;;;;0.60;0.60;;;;;;;14.28;84.14;95461.13;4373856;32;20216;-62
2022/09/02 03:11:41;;;;;;;7.40;1.10;;;;;;;14.26;84.15;95462.53;4371932;32;20196;-62
2022/09/02 03:14:07;;;;;;;0.53;0.53;;;;;;;14.24;84.27;95457.50;4350372;32;20188;-62
2022/09/02 03:16:35;;;;;;;1.13;1.13;;;;;;;14.36;83.86;95456.88;4362753;32;20211;-62
2022/09/02 03:19:01;;;;;;;1.37;1.37;;;;;;;14.43;83.44;95447.34;4348943;32;20196;-61
2022/09/02 03:21:27;;;;;;;1.00;1.00;;;;;;;14.50;83.34;95451.44;4367322;32;20193;-62
2022/09/02 03:23:52;;;;;;;1.00;1.00;;;;;;;14.32;83.92;95456.75;4345774;32;20279;-62
2022/09/02 03:26:20;;;;;;;0.90;0.90;;;;;;;14.37;83.74;95440.53;4350196;32;20193;-62
2022/09/02 03:28:48;;;;;;;0.60;0.60;;;;;;;14.42;83.49;95448.44;4358263;32;20268;-62
2022/09/02 03:31:16;;;;;;;1.10;1.10;;;;;;;14.33;83.89;95447.62;4344153;32;20221;-62
2022/09/02 03:33:42;;;;;;;0.87;0.87;;;;;;;14.28;84.00;95449.66;4358642;32;20306;-62
2022/09/02 03:36:07;;;;;;;1.47;1.37;;;;;;;14.21;84.25;95452.00;4361423;32;20204;-62
2022/09/02 03:38:34;;;;;;;1.10;1.10;;;;;;;14.19;84.73;95446.97;4360028;32;20196;-64
2022/09/02 03:41:00;;;;;;;0.83;0.83;;;;;;;14.22;84.37;95446.34;4365411;32;20280;-62
2022/09/02 03:43:25;;;;;;;0.80;0.80;;;;;;;14.22;84.60;95441.00;4353189;32;20283;-62
2022/09/02 03:45:50;;;;;;;0.73;0.73;;;;;;;14.12;84.81;95445.88;4358767;32;20193;-62
2022/09/02 03:48:16;;;;;;;0.77;0.77;;;;;;;14.21;84.51;95442.13;4358802;32;20267;-62
2022/09/02 03:50:46;;;;;;;0.80;0.80;;;;;;;14.04;85.05;95440.22;4377896;32;20203;-62
2022/09/02 03:53:14;;;;;;;1.47;1.37;;;;;;;14.16;84.75;95438.81;4359209;32;20196;-62
2022/09/02 03:55:39;;;;;;;0.83;0.83;;;;;;;14.18;84.86;95441.94;4355333;32;20220;-62
2022/09/02 03:58:05;;;;;;;2.50;1.63;;;;;;;13.82;86.10;95443.00;4358646;32;20203;-62
2022/09/02 04:00:32;;;;;;;0.90;0.90;;;;;;;14.07;85.18;95444.16;4362339;32;20207;-62
2022/09/02 04:02:59;;;;;;;0.80;0.80;;;;;;;14.02;85.48;95431.75;4346245;32;20188;-62
2022/09/02 04:05:25;;;;;;;0.83;0.83;;;;;;;13.98;85.77;95438.00;4358331;32;20189;-62
2022/09/02 04:07:51;;;;;;;0.83;0.83;;;;;;;14.12;85.03;95441.34;4348842;32;20245;-62
2022/09/02 04:10:18;;;;;;;0.53;0.53;;;;;;;14.17;85.02;95435.81;4356815;32;20269;-62
2022/09/02 04:12:43;;;;;;;1.50;1.40;;;;;;;14.07;85.32;95431.59;4360551;32;20248;-62
2022/09/02 04:15:11;;;;;;;0.90;0.90;;;;;;;14.03;85.61;95429.84;4356899;32;20189;-62
2022/09/02 04:21:16;;;;;;;1.63;1.53;;;;;;;14.07;85.53;95433.47;4371807;32;20195;-64
2022/09/02 04:23:42;;;;;;;1.10;1.00;;;;;;;14.01;85.82;95437.38;4359727;32;20185;-64
2022/09/02 04:26:15;;;;;;;0.90;0.90;;;;;;;13.95;86.02;95434.06;4357474;32;20207;-65
2022/09/02 04:28:40;;;;;;;1.90;1.80;;;;;;;13.90;86.13;95436.91;4359131;32;20189;-65
2022/09/02 04:31:08;;;;;;;1.77;0.90;;;;;;;13.99;85.76;95432.34;4361892;32;20258;-63
2022/09/02 04:33:34;;;;;;;1.17;1.17;;;;;;;14.11;85.24;95434.44;4369571;32;20230;-61
2022/09/02 04:36:08;;;;;;;0.60;0.60;;;;;;;14.01;85.35;95434.72;4367634;32;20242;-62
2022/09/02 04:38:34;;;;;;;1.13;1.13;;;;;;;13.96;85.75;95432.19;4345799;32;20207;-62
2022/09/02 04:41:05;;;;;;;1.47;1.43;;;;;;;13.92;85.70;95437.38;4368652;32;20242;-62
2022/09/02 04:43:30;;;;;;;1.80;1.70;;;;;;;13.79;86.58;95440.16;4373680;32;20193;-62
2022/09/02 04:45:56;;;;;;;1.17;1.17;;;;;;;13.69;87.21;95441.25;4365708;32;20327;-62
2022/09/02 04:48:22;;;;;;;1.03;1.03;;;;;;;13.88;86.03;95432.97;4355190;32;20211;-61
2022/09/02 04:50:48;;;;;;;1.13;1.10;;;;;;;13.99;85.61;95440.34;4372970;32;20181;-64
2022/09/02 04:53:13;;;;;;;0.63;0.63;;;;;;;13.97;85.71;95439.09;4352177;32;20242;-65
2022/09/02 04:55:40;;;;;;;1.03;1.03;;;;;;;13.71;86.68;95431.84;4369076;32;20184;-64
2022/09/02 04:58:05;;;;;;;1.20;1.20;;;;;;;13.85;86.31;95430.94;4375230;32;20185;-62
2022/09/02 05:00:31;;;;;;;1.33;1.33;;;;;;;13.87;86.29;95434.06;4372464;32;20195;-62
2022/09/02 05:02:56;;;;;;;1.37;1.27;;;;;;;13.93;86.13;95433.59;4365865;32;20200;-64
2022/09/02 05:05:22;;;;;;;1.13;1.13;;;;;;;13.81;86.35;95435.31;4355032;32;20192;-65
2022/09/02 05:07:47;;;;;;;1.93;1.00;;;;;;;13.71;87.10;95439.06;4371152;32;20207;-62
2022/09/02 05:10:14;;;;;;;2.30;1.17;;;;;;;13.82;86.80;95442.22;4360536;32;20247;-62
2022/09/02 05:12:40;;;;;;;1.10;1.10;;;;;;;13.67;87.42;95440.78;4357421;32;20249;-62
2022/09/02 05:15:07;;;;;;;1.47;1.47;;;;;;;13.74;87.20;95441.09;4367478;32;20189;-62
2022/09/02 05:17:34;;;;;;;1.93;1.20;;;;;;;13.91;86.43;95443.03;4368069;32;20189;-62
2022/09/02 05:20:00;;;;;;;1.27;1.27;;;;;;;13.73;86.89;95442.19;4365127;32;20211;-62
2022/09/02 05:22:28;;;;;;;0.73;0.73;;;;;;;13.73;87.19;95448.28;4372589;32;20291;-62
2022/09/02 05:24:54;;;;;;;0.97;0.97;;;;;;;13.56;88.26;95456.25;4364653;32;20220;-62
2022/09/02 05:27:19;;;;;;;0.90;0.90;;;;;;;13.46;88.88;95451.19;4369274;32;20218;-62
2022/09/02 05:29:45;;;;;;;1.40;1.30;;;;;;;13.59;88.22;95450.31;4364670;32;20197;-62
2022/09/02 05:32:11;;;;;;;1.73;1.63;;;;;;;13.50;88.67;95449.50;4345993;32;20227;-62
2022/09/02 05:34:36;;;;;;;1.17;1.17;;;;;;;13.47;89.07;95452.00;4359847;32;20197;-62
2022/09/02 05:37:02;;;;;;;1.67;1.60;;;;;;;13.53;88.73;95456.84;4363510;32;20188;-62
2022/09/02 05:39:28;;;;;;;1.47;1.47;;;;;;;13.59;88.83;95455.63;4359570;32;20251;-62
2022/09/02 05:41:54;;;;;;;1.27;1.27;;;;;;;13.69;88.50;95443.91;4353854;32;20236;-62
2022/09/02 05:44:19;;;;;;;1.40;1.40;;;;;;;13.64;88.75;95442.16;4373002;32;20218;-62
2022/09/02 05:46:45;;;;;;;1.43;1.33;;;;;;;13.70;88.73;95440.94;4366805;32;20192;-62
2022/09/02 05:49:16;;;;;;;1.80;1.70;;;;;;;13.69;88.77;95452.69;4353670;32;20188;-62
2022/09/02 05:51:59;;;;;;;1.00;1.00;;;;;;;13.73;88.79;95445.63;4349289;32;20188;-62
2022/09/02 05:54:28;;;;;;;1.30;1.30;;;;;;;13.81;88.40;95443.31;4346545;32;20216;-62
2022/09/02 05:56:56;;;;;;;1.70;1.70;;;;;;;13.79;88.65;95440.94;4372740;32;20285;-62
2022/09/02 05:59:23;;;;;;;1.73;1.73;;;;;;;13.81;88.44;95445.97;4366517;32;20196;-62
2022/09/02 06:01:49;;;;;;;1.20;1.20;;;;;;;13.83;88.66;95444.56;4364631;32;20185;-62
2022/09/02 06:04:16;;;;;;;1.57;1.57;;;;;;;13.96;88.12;95442.84;4358847;32;20205;-62
2022/09/02 06:06:42;;;;;;;1.30;1.30;;;;;;;14.03;87.63;95443.19;4369103;32;20216;-62
2022/09/02 06:09:09;;;;;;;7.00;1.50;;;;;;;13.92;88.30;95444.59;4362481;32;20216;-62
2022/09/02 06:11:39;;;;;;;1.33;1.33;;;;;;;13.97;88.04;95444.44;4351091;32;20189;-61
2022/09/02 06:14:06;;;;;;;1.23;1.23;;;;;;;14.07;87.89;95439.59;4352699;32;20230;-62
2022/09/02 06:16:32;;;;;;;1.03;1.03;;;;;;;14.01;87.97;95442.72;4360433;32;20214;-61
2022/09/02 06:18:58;;;;;;;3.50;1.53;;;;;;;14.00;88.24;95446.47;4360985;32;20197;-61
2022/09/02 06:21:23;;;;;;;1.40;1.37;;;;;;;14.14;87.81;95439.12;4365265;32;20262;-62
2022/09/02 06:23:49;;;;;;;1.23;1.23;;;;;;;14.04;87.88;95434.09;4363668;32;20197;-62
2022/09/02 06:26:16;;;;;;;2.27;2.17;;;;;;;14.03;88.08;95437.84;4347256;32;20201;-61
2022/09/02 06:28:41;;;;;;;0.70;0.70;;;;;;;13.97;88.23;95436.44;4364282;32;20215;-62
2022/09/02 06:31:15;;;;;;;0.90;0.90;;;;;;;14.01;88.37;95434.72;4353048;32;20189;-62
2022/09/02 06:33:45;;;;;;;1.73;1.63;;;;;;;14.14;88.19;95444.44;4345878;32;20185;-62
2022/09/02 06:36:14;;;;;;;1.17;1.17;;;;;;;14.19;87.93;95433.63;4357274;32;20188;-62
2022/09/02 06:38:43;;;;;;;1.13;1.13;;;;;;;14.20;87.73;95434.41;4363608;32;20220;-62
2022/09/02 06:41:13;;;;;;;1.30;1.30;;;;;;;14.26;87.42;95441.97;4356492;32;20196;-62
2022/09/02 06:43:38;;;;;;;2.43;2.23;;;;;;;14.39;87.08;95435.69;4372866;32;20254;-62
2022/09/02 06:46:12;;;;;;;1.97;1.87;;;;;;;14.39;86.81;95441.03;4374388;32;20189;-61
2022/09/02 06:48:38;;;;;;;1.17;1.17;;;;;;;14.27;86.97;95438.19;4363646;32;20243;-64
2022/09/02 06:51:06;;;;;;;1.23;1.23;;;;;;;14.29;86.86;95433.34;4372685;32;20196;-62
2022/09/02 06:53:32;;;;;;;1.20;1.20;;;;;;;14.30;87.42;95437.59;4345671;32;20231;-61
2022/09/02 06:55:57;;;;;;;0.87;0.87;;;;;;;14.27;87.17;95430.19;4349310;32;20197;-62
2022/09/02 06:58:22;;;;;;;0.67;0.67;;;;;;;14.42;87.09;95429.75;4358864;32;20189;-62
2022/09/02 07:00:48;;;;;;;1.30;1.30;;;;;;;14.48;86.95;95440.28;4364412;32;20196;-62
2022/09/02 07:06:08;;;;;;;1.43;1.43;;;;;;;14.64;85.97;95441.34;4362102;32;20223;-62
2022/09/02 07:08:41;;;;;;;1.00;1.00;;;;;;;14.79;85.63;95435.53;4345964;32;20203;-62
2022/09/02 07:11:16;;;;;;;1.10;1.10;;;;;;;14.83;84.59;95441.81;4354591;32;20215;-62
2022/09/02 07:13:41;;;;;;;0.97;0.97;;;;;;;14.90;84.34;95438.66;4361259;32;20204;-62
2022/09/02 07:16:06;;;;;;;0.97;0.97;;;;;;;15.00;83.92;95439.09;4365372;32;20202;-62
2022/09/02 07:18:33;;;;;;;0.80;0.80;;;;;;;15.01;83.85;95439.88;4374517;32;20197;-61
2022/09/02 07:20:59;;;;;;;0.90;0.90;;;;;;;15.00;84.17;95446.31;4356072;32;20193;-62
2022/09/02 07:23:25;;;;;;;1.33;1.23;;;;;;;15.02;84.19;95439.56;4356931;32;20227;-62
2022/09/02 07:25:50;;;;;;;2.70;1.00;;;;;;;15.05;84.16;95441.59;4361010;32;20196;-62
2022/09/02 07:28:16;;;;;;;2.90;1.73;;;;;;;15.09;84.43;95441.75;4363049;32;20185;-61
2022/09/02 07:30:42;;;;;;;2.50;1.30;;;;;;;15.20;84.14;95442.19;4365221;32;20244;-62
2022/09/02 07:33:10;;;;;;;1.37;1.37;;;;;;;15.24;83.57;95443.13;4369748;32;20220;-62
2022/09/02 07:35:37;;;;;;;2.20;1.43;;;;;;;15.37;83.17;95436.81;4360646;32;20245;-63
2022/09/02 07:38:03;;;;;;;1.10;1.10;;;;;;;15.43;83.40;95436.28;4375061;32;20189;-62
2022/09/02 07:40:28;;;;;;;0.77;0.70;;;;;;;15.59;82.69;95433.13;4359852;32;20192;-62
2022/09/02 07:42:54;;;;;;;1.23;1.23;;;;;;;15.61;81.71;95423.66;4359095;32;20246;-62
2022/09/02 07:45:20;;;;;;;0.67;0.67;;;;;;;15.60;81.64;95435.44;4355290;32;20249;-62
2022/09/02 07:47:46;;;;;;;0.60;0.60;;;;;;;15.71;80.28;95436.69;4372216;32;20184;-61
2022/09/02 07:50:12;;;;;;;0.77;0.77;;;;;;;15.73;80.47;95434.47;4345406;32;20193;-62
2022/09/02 07:52:38;;;;;;;1.47;1.37;;;;;;;15.84;80.18;95434.06;4373057;32;20226;-62
2022/09/02 07:55:04;;;;;;;0.93;0.93;;;;;;;15.92;80.13;95435.94;4352402;32;20193;-62
2022/09/02 07:57:30;;;;;;;2.60;1.40;;;;;;;15.91;79.72;95429.00;4349402;32;20189;-61
2022/09/02 07:59:56;;;;;;;0.90;0.90;;;;;;;16.03;79.11;95426.41;4357880;32;20275;-62
2022/09/02 08:02:21;;;;;;;1.17;0.90;;;;;;;16.09;79.58;95425.91;4371142;32;20207;-62
2022/09/02 08:04:47;;;;;;;0.57;0.57;;;;;;;16.15;78.75;95432.62;4358807;32;20193;-62
2022/09/02 08:07:12;;;;;;;0.83;0.83;;;;;;;16.08;77.71;95426.22;4359009;32;20228;-62
2022/09/02 08:09:38;;;;;;;0.57;0.57;;;;;;;16.25;77.36;95426.09;4358488;32;20215;-62
2022/09/02 08:12:04;;;;;;;0.80;0.80;;;;;;;16.33;77.36;95422.59;4359800;32;20210;-62
2022/09/02 08:14:29;;;;;;;3.97;1.10;;;;;;;16.42;75.74;95436.66;4345075;32;20189;-61
2022/09/02 08:16:56;;;;;;;0.37;0.37;;;;;;;16.43;76.51;95438.25;4353619;32;20208;-62
2022/09/02 08:19:22;;;;;;;0.90;0.70;;;;;;;16.56;73.86;95430.28;4360558;32;20192;-62
2022/09/02 08:21:48;;;;;;;0.80;0.80;;;;;;;16.59;73.01;95435.78;4359606;32;20193;-62
2022/09/02 08:24:13;;;;;;;1.00;1.00;;;;;;;16.66;72.42;95437.94;4348262;32;20284;-62
2022/09/02 08:26:39;;;;;;;0.37;0.37;;;;;;;16.66;71.94;95427.22;4371241;32;20189;-62
2022/09/02 08:29:07;;;;;;;5.73;0.73;;;;;;;16.69;71.88;95439.97;4367962;32;20297;-62
2022/09/02 08:31:33;;;;;;;20.20;0.97;;;;;;;16.71;70.31;95427.03;4371743;32;20197;-62
2022/09/02 08:33:59;;;;;;;0.40;0.40;;;;;;;16.75;69.98;95431.41;4359036;32;20216;-61
2022/09/02 08:36:25;;;;;;;0.47;0.47;;;;;;;16.82;70.01;95426.28;4363076;32;20274;-62
2022/09/02 08:38:50;;;;;;;1.90;0.57;;;;;;;16.97;67.11;95422.19;4362314;32;20234;-62
2022/09/02 08:41:22;;;;;;;0.40;0.40;;;;;;;17.08;66.35;95423.31;4356983;32;20213;-62
2022/09/02 08:43:50;;;;;;;0.50;0.50;;;;;;;17.13;66.74;95414.28;4362249;32;20247;-62
2022/09/02 08:46:16;;;;;;;0.37;0.37;;;;;;;17.15;65.95;95412.84;4346220;32;20212;-62
2022/09/02 08:48:51;;;;;;;0.67;0.67;;;;;;;17.26;65.99;95417.78;4365276;32;20189;-62
2022/09/02 08:51:42;;;;;;;0.50;0.50;;;;;;;17.35;64.53;95419.25;4351041;32;20196;-62
2022/09/02 08:54:46;;;;;;;0.30;0.30;;;;;;;17.42;63.11;95422.19;4357452;32;20235;-62
2022/09/02 08:57:11;;;;;;;0.23;0.23;;;;;;;17.49;61.14;95417.03;4358171;32;20233;-65
2022/09/02 08:59:38;;;;;;;0.40;0.40;;;;;;;17.54;60.87;95416.03;4353405;32;20193;-62
2022/09/02 09:02:34;;;;;;;0.50;0.50;;;;;;;17.57;59.22;95415.34;4363235;32;20189;-62
2022/09/02 09:05:10;;;;;;;1.93;0.83;;;;;;;17.61;59.45;95421.63;4344180;32;20185;-62
2022/09/02 09:07:55;;;;;;;0.10;0.10;;;;;;;17.67;59.46;95416.81;4366974;32;20260;-62
2022/09/02 09:10:35;;;;;;;0.73;0.73;;;;;;;17.71;59.49;95421.19;4361209;32;20200;-62
2022/09/02 09:13:29;;;;;;;0.80;0.80;;;;;;;17.73;59.35;95410.13;4360521;32;20240;-62
2022/09/02 09:16:27;;;;;;;0.20;0.20;;;;;;;17.78;58.86;95415.28;4323269;32;20236;-62
2022/09/02 09:19:06;;;;;;;0.40;0.40;;;;;;;17.82;58.97;95411.59;4355383;32;20208;-62
2022/09/02 09:21:32;;;;;;;2.33;1.80;;;;;;;17.94;58.62;95412.69;4352682;32;20206;-62
2022/09/02 09:24:01;;;;;;;0.50;0.50;;;;;;;17.93;58.22;95409.22;4363533;32;20241;-62
2022/09/02 09:26:31;;;;;;;0.40;0.40;;;;;;;17.92;58.53;95407.66;4360138;32;20338;-62
2022/09/02 09:28:58;;;;;;;0.33;0.33;;;;;;;17.95;58.82;95409.66;4350011;32;20267;-62
2022/09/02 09:31:29;;;;;;;0.23;0.23;;;;;;;18.06;58.85;95404.63;4374154;32;20203;-62
2022/09/02 09:34:05;;;;;;;0.27;0.27;;;;;;;18.05;58.96;95400.38;4374316;32;20301;-62
2022/09/02 09:36:40;;;;;;;0.27;0.27;;;;;;;18.11;58.57;95394.41;4362220;32;20189;-62
2022/09/02 09:39:28;;;;;;;2.10;0.93;;;;;;;18.19;59.06;95395.41;4350709;32;20185;-62
2022/09/02 09:42:00;;;;;;;1.30;1.00;;;;;;;18.30;58.29;95406.44;4345842;32;20223;-61
2022/09/02 09:44:44;;;;;;;0.67;0.67;;;;;;;18.22;58.66;95393.97;4353766;32;20260;-62
2022/09/02 09:47:18;;;;;;;0.70;0.70;;;;;;;18.30;59.03;95385.75;4352276;32;20265;-63
2022/09/02 09:49:46;;;;;;;0.20;0.20;;;;;;;18.33;59.12;95381.59;4359387;32;20242;-62
2022/09/02 09:52:21;;;;;;;0.63;0.63;;;;;;;18.31;58.69;95381.94;4351775;32;20206;-62
2022/09/02 09:55:05;;;;;;;0.20;0.20;;;;;;;18.47;58.97;95376.66;4360167;32;20192;-62
2022/09/02 09:57:31;;;;;;;0.20;0.20;;;;;;;18.47;57.46;95382.03;4368888;32;20193;-62
2022/09/02 10:00:01;;;;;;;0.40;0.40;;;;;;;18.51;58.06;95388.25;4371847;32;20336;-62
2022/09/02 10:02:27;;;;;;;0.50;0.50;;;;;;;18.49;58.95;95377.88;4364874;32;20224;-62
2022/09/02 10:05:08;;;;;;;0.40;0.40;;;;;;;18.71;57.40;95384.59;4369379;32;20205;-62
2022/09/02 10:07:53;;;;;;;0.30;0.30;;;;;;;18.74;57.00;95378.56;4360648;32;20205;-62
2022/09/02 10:10:21;;;;;;;0.73;0.73;;;;;;;18.86;54.30;95385.78;4359400;32;20249;-62
2022/09/02 10:12:49;;;;;;;0.43;0.43;;;;;;;18.90;55.20;95386.66;4346122;32;20252;-62
2022/09/02 10:15:23;;;;;;;0.30;0.30;;;;;;;18.80;56.13;95379.09;4353416;32;20227;-62
2022/09/02 10:18:06;;;;;;;1.30;0.77;;;;;;;18.82;55.95;95383.00;4367752;32;20259;-62
2022/09/02 10:20:40;;;;;;;0.30;0.30;;;;;;;18.99;55.09;95378.44;4364739;32;20203;-61
2022/09/02 10:23:15;;;;;;;0.40;0.40;;;;;;;19.01;54.67;95376.97;4363010;32;20188;-62
2022/09/02 10:26:07;;;;;;;0.30;0.30;;;;;;;18.92;56.16;95370.16;4365891;32;20263;-62
2022/09/02 10:29:02;;;;;;;0.10;0.10;;;;;;;18.85;55.65;95384.22;4362259;32;20189;-62
2022/09/02 10:31:45;;;;;;;0.40;0.40;;;;;;;18.93;55.38;95383.28;4351710;32;20302;-61
2022/09/02 10:34:23;;;;;;;0.70;0.70;;;;;;;19.12;53.70;95378.00;4362828;32;20189;-62
2022/09/02 10:36:48;;;;;;;0.70;0.70;;;;;;;19.11;52.74;95379.16;4361853;32;20251;-62
2022/09/02 10:39:33;;;;;;;0.10;0.10;;;;;;;19.15;52.48;95377.31;4370418;32;20265;-62
2022/09/02 10:42:13;;;;;;;0.10;0.10;;;;;;;19.08;52.82;95371.78;4360489;32;20193;-61
2022/09/02 10:44:51;;;;;;;0.37;0.37;;;;;;;19.11;53.41;95376.47;4357397;32;20211;-62
2022/09/02 10:47:33;;;;;;;0.30;0.30;;;;;;;19.13;53.26;95368.81;4350021;32;20184;-62
2022/09/02 10:50:07;;;;;;;0.23;0.23;;;;;;;19.13;53.12;95362.66;4358045;32;20198;-62
2022/09/02 10:53:04;;;;;;;0.40;0.40;;;;;;;19.17;52.38;95358.91;4353781;32;20202;-62
2022/09/02 10:55:58;;;;;;;0.10;0.10;;;;;;;19.23;51.33;95368.31;4361343;32;20207;-62
2022/09/02 10:58:29;;;;;;;0.10;0.10;;;;;;;19.16;52.04;95356.56;4358557;32;20192;-62
2022/09/02 11:00:56;;;;;;;0.30;0.30;;;;;;;19.12;51.66;95353.78;4353359;32;20192;-62
2022/09/02 11:03:27;;;;;;;0.73;0.73;;;;;;;19.16;52.40;95353.88;4365215;32;20223;-62
2022/09/02 11:06:17;;;;;;;0.33;0.33;;;;;;;19.33;51.72;95344.72;4360425;32;20184;-62
2022/09/02 11:08:52;;;;;;;0.30;0.30;;;;;;;19.41;51.87;95346.41;4371690;32;20268;-62
2022/09/02 11:11:29;;;;;;;0.27;0.27;;;;;;;19.52;51.21;95344.81;4344326;32;20199;-62
2022/09/02 11:14:10;;;;;;;0.00;0.00;;;;;;;19.55;50.62;95347.56;4359440;32;20296;-62
2022/09/02 11:16:50;;;;;;;0.50;0.50;;;;;;;19.56;49.30;95345.66;4358546;32;20188;-62
2022/09/02 11:19:32;;;;;;;20.57;0.50;;;;;;;19.57;49.84;95339.13;4354145;32;20169;-62
2022/09/02 11:22:02;;;;;;;9.70;0.93;;;;;;;19.57;50.33;95336.44;4371714;32;20308;-62
2022/09/02 11:24:41;;;;;;;0.17;0.17;;;;;;;19.71;49.59;95336.78;4368414;32;20264;-62
2022/09/02 11:27:25;;;;;;;0.27;0.27;;;;;;;19.72;49.13;95341.03;4357825;32;20241;-62
2022/09/02 11:30:07;;;;;;;0.20;0.20;;;;;;;19.84;47.88;95337.44;4347347;32;20191;-62
2022/09/02 11:32:45;;;;;;;0.33;0.33;;;;;;;19.83;48.20;95335.87;4364415;32;20185;-62
2022/09/02 11:35:17;;;;;;;0.30;0.30;;;;;;;19.78;49.84;95328.06;4354605;32;20184;-63
2022/09/02 11:37:50;;;;;;;2.10;0.70;;;;;;;19.79;49.52;95330.41;4363677;32;20184;-62
2022/09/02 11:40:25;;;;;;;0.10;0.10;;;;;;;19.70;49.27;95327.16;4363859;32;20189;-62
2022/09/02 11:43:35;;;;;;;0.40;0.40;;;;;;;19.79;49.47;95335.78;4361306;32;20188;-62
2022/09/02 11:46:29;;;;;;;0.20;0.20;;;;;;;19.78;49.53;95333.44;4342412;32;20177;-62
2022/09/02 11:49:13;;;;;;;0.40;0.40;;;;;;;19.85;49.24;95339.78;4348536;32;20228;-62
2022/09/02 11:51:57;;;;;;;0.40;0.40;;;;;;;19.90;48.24;95330.66;4358604;32;20207;-63